Time;durP1;ratioP1;P1;durP2;ratioP2;P2;SDS_P1;SDS_P2;PMS_P1;PMS_P2;Temp;Humidity;BMP_temperature;BMP_pressure;BME280_temperature;BME280_humidity;BME280_pressure;Samples;Min_cycle;Max_cycle;Signal;HPM_P1;HPM_P2
2023/10/01 00:02:19;;;;;;;7.23;6.10;;;;;;;12.45;100.00;101251.63;5044973;28;20167;-81
2023/10/01 00:04:44;;;;;;;6.00;4.93;;;;;;;12.41;100.00;101252.50;5043981;28;20861;-85
2023/10/01 00:07:11;;;;;;;6.40;4.83;;;;;;;12.37;100.00;101250.75;5023181;28;20571;-83
2023/10/01 00:09:37;;;;;;;6.70;5.10;;;;;;;12.34;100.00;101245.56;5015661;28;20206;-84
2023/10/01 00:12:02;;;;;;;6.07;5.13;;;;;;;12.31;100.00;101241.25;5020495;28;20559;-83
2023/10/01 00:14:27;;;;;;;5.73;5.23;;;;;;;12.31;100.00;101248.19;5023046;28;20180;-80
2023/10/01 00:16:53;;;;;;;6.17;5.40;;;;;;;12.29;100.00;101245.56;5019370;28;20183;-83
2023/10/01 00:19:18;;;;;;;6.73;5.83;;;;;;;12.28;100.00;101249.03;5014882;28;20183;-85
2023/10/01 00:21:44;;;;;;;5.80;5.20;;;;;;;12.27;100.00;101249.06;5015221;28;20246;-83
2023/10/01 00:24:10;;;;;;;5.70;5.10;;;;;;;12.25;100.00;101243.84;5020519;28;20181;-81
2023/10/01 00:26:36;;;;;;;6.40;5.40;;;;;;;12.27;100.00;101251.66;5014586;28;20870;-81
2023/10/01 00:29:02;;;;;;;7.77;6.40;;;;;;;12.27;100.00;101251.66;5011115;28;20201;-80
2023/10/01 00:31:27;;;;;;;6.57;5.63;;;;;;;12.26;100.00;101240.38;5018782;28;20266;-82
2023/10/01 00:33:52;;;;;;;7.83;5.20;;;;;;;12.24;100.00;101243.84;5011413;28;20211;-82
2023/10/01 00:36:19;;;;;;;6.27;5.40;;;;;;;12.22;100.00;101241.28;5016003;28;20184;-82
2023/10/01 00:38:45;;;;;;;7.70;6.03;;;;;;;12.20;100.00;101249.03;5017692;28;20208;-84
2023/10/01 00:41:11;;;;;;;6.87;5.90;;;;;;;12.19;100.00;101246.47;5017445;28;20235;-82
2023/10/01 00:43:36;;;;;;;6.93;5.50;;;;;;;12.16;100.00;101236.06;5017002;28;20188;-81
2023/10/01 00:46:05;;;;;;;7.10;5.63;;;;;;;12.15;100.00;101245.59;5011441;28;20255;-82
2023/10/01 00:48:31;;;;;;;8.27;5.70;;;;;;;12.16;100.00;101246.44;5015231;28;20284;-83
2023/10/01 00:50:59;;;;;;;7.70;5.77;;;;;;;12.15;100.00;101242.13;5008273;28;20747;-81
2023/10/01 00:53:24;;;;;;;6.10;5.50;;;;;;;12.13;100.00;101236.94;5012647;28;20879;-82
2023/10/01 00:55:51;;;;;;;7.80;5.77;;;;;;;12.15;100.00;101242.13;5017695;28;20191;-82
2023/10/01 00:58:18;;;;;;;6.90;6.00;;;;;;;12.15;100.00;101223.97;5018456;28;20187;-82
2023/10/01 01:00:50;;;;;;;7.30;5.93;;;;;;;12.18;100.00;101240.38;5019863;28;20301;-84
2023/10/01 01:03:19;;;;;;;6.57;5.30;;;;;;;12.16;100.00;101236.94;5016744;28;20708;-82
2023/10/01 01:06:36;;;;;;;6.63;5.07;;;;;;;12.15;100.00;101231.75;5015024;28;20216;-84
2023/10/01 01:08:46;;;;;;;6.87;5.07;;;;;;;12.11;100.00;101235.19;5024982;28;20225;-85
2023/10/01 01:11:15;;;;;;;8.20;5.93;;;;;;;12.08;100.00;101227.44;5018317;28;20222;-84
2023/10/01 01:13:43;;;;;;;6.60;5.53;;;;;;;12.04;100.00;101223.97;5018828;28;20747;-81
2023/10/01 01:16:11;;;;;;;6.10;5.50;;;;;;;12.00;100.00;101236.06;5011830;28;20250;-84
2023/10/01 01:18:36;;;;;;;7.10;6.30;;;;;;;11.96;100.00;101231.72;5017890;28;20192;-82
2023/10/01 01:21:09;;;;;;;7.83;6.07;;;;;;;11.95;100.00;101235.16;5016736;28;20243;-84
2023/10/01 01:23:35;;;;;;;6.87;5.87;;;;;;;11.94;100.00;101235.16;5016054;28;20838;-83
2023/10/01 01:26:01;;;;;;;8.40;5.73;;;;;;;11.92;100.00;101229.13;5010023;28;20325;-83
2023/10/01 01:28:32;;;;;;;6.40;5.80;;;;;;;11.89;100.00;101235.19;5014669;28;20187;-79
2023/10/01 01:30:59;;;;;;;6.50;5.87;;;;;;;11.87;100.00;101237.75;5012559;28;20243;-82
2023/10/01 01:36:20;;;;;;;7.33;5.47;;;;;;;11.80;100.00;101241.22;5025942;28;20199;-81
2023/10/01 01:39:10;;;;;;;6.63;5.30;;;;;;;11.75;100.00;101237.75;5011938;28;20222;-83
2023/10/01 01:41:42;;;;;;;7.50;6.30;;;;;;;11.71;100.00;101226.50;5017585;28;20205;-84
2023/10/01 01:44:09;;;;;;;6.73;5.77;;;;;;;11.70;100.00;101234.28;5019629;28;20280;-81
2023/10/01 01:46:34;;;;;;;7.57;6.03;;;;;;;11.71;100.00;101230.84;5018141;28;20222;-83
2023/10/01 01:49:00;;;;;;;6.67;5.33;;;;;;;11.72;100.00;101240.34;5021992;28;20207;-82
2023/10/01 01:51:25;;;;;;;6.17;5.57;;;;;;;11.70;100.00;101236.88;5029687;28;20233;-85
2023/10/01 01:53:50;;;;;;;6.73;5.50;;;;;;;11.71;100.00;101239.47;5020550;28;20812;-81
2023/10/01 01:56:19;;;;;;;7.50;6.33;;;;;;;11.72;100.00;101240.34;5017504;28;20729;-82
2023/10/01 01:58:44;;;;;;;7.53;6.10;;;;;;;11.71;100.00;101242.06;5048228;28;20187;-82
2023/10/01 02:03:39;;;;;;;7.37;5.90;;;;;;;11.71;100.00;101233.44;5014278;28;20183;-78
2023/10/01 02:06:08;;;;;;;6.80;5.03;;;;;;;11.68;100.00;101234.28;5042338;28;20223;-79
2023/10/01 02:08:35;;;;;;;6.53;5.30;;;;;;;11.65;100.00;101231.66;5024521;28;20648;-84
2023/10/01 02:11:09;;;;;;;6.83;5.40;;;;;;;11.63;100.00;101235.13;5016322;28;20204;-82
2023/10/01 02:13:41;;;;;;;6.80;5.53;;;;;;;11.61;100.00;101236.84;5019214;28;20290;-83
2023/10/01 02:16:34;;;;;;;7.17;6.47;;;;;;;11.59;100.00;101239.44;5022491;28;20183;-84
2023/10/01 02:19:21;;;;;;;6.77;6.17;;;;;;;11.55;100.00;101232.53;5017078;28;20184;-82
2023/10/01 02:22:00;;;;;;;6.77;6.07;;;;;;;11.53;100.00;101235.13;5011900;28;20203;-80
2023/10/01 02:24:45;;;;;;;6.93;6.00;;;;;;;11.49;100.00;101235.97;5017220;28;20190;-82
2023/10/01 02:27:16;;;;;;;9.40;5.80;;;;;;;11.47;100.00;101226.47;5016784;28;20204;-81
2023/10/01 02:32:28;;;;;;;7.20;6.50;;;;;;;11.46;100.00;101229.91;5011328;28;20265;-84
2023/10/01 02:34:56;;;;;;;7.73;6.67;;;;;;;11.46;100.00;101228.19;5013952;28;20372;-81
2023/10/01 02:37:35;;;;;;;6.50;5.63;;;;;;;11.45;100.00;101226.44;5017243;28;20202;-84
2023/10/01 02:40:12;;;;;;;7.23;6.40;;;;;;;11.43;100.00;101221.28;5019632;28;20211;-81
2023/10/01 02:42:38;;;;;;;7.60;6.47;;;;;;;11.41;100.00;101223.00;5019832;28;20658;-80
2023/10/01 02:45:30;;;;;;;6.90;5.87;;;;;;;11.40;100.00;101212.63;5022013;28;20753;-84
2023/10/01 02:48:13;;;;;;;6.50;5.90;;;;;;;11.40;100.00;101212.63;5017012;28;20192;-79
2023/10/01 02:50:36;;;;;;;8.30;6.47;;;;;;;11.38;100.00;101199.66;5017978;28;20210;-84
2023/10/01 02:53:03;;;;;;;8.73;6.93;;;;;;;11.38;100.00;101207.41;5010983;28;20452;-79
2023/10/01 02:55:28;;;;;;;8.07;7.03;;;;;;;11.41;100.00;101207.44;5019612;28;20191;-84
2023/10/01 02:57:53;;;;;;;9.33;7.00;;;;;;;11.44;100.00;101209.16;5019420;28;20194;-83
2023/10/01 03:00:30;;;;;;;7.60;6.57;;;;;;;11.44;100.00;101211.75;5014949;28;20220;-84
2023/10/01 03:02:58;;;;;;;8.37;6.60;;;;;;;11.43;100.00;101212.63;5009678;28;20186;-81
2023/10/01 03:07:52;;;;;;;7.03;6.10;;;;;;;11.37;100.00;101205.69;5017638;28;20955;-83
2023/10/01 03:10:29;;;;;;;8.07;5.90;;;;;;;11.35;100.00;101211.75;5020853;28;20215;-79
2023/10/01 03:12:57;;;;;;;7.83;5.80;;;;;;;11.34;100.00;101202.22;5014726;28;20291;-84
2023/10/01 03:15:28;;;;;;;7.57;6.30;;;;;;;11.33;100.00;101203.09;5007665;28;20192;-84
2023/10/01 03:17:56;;;;;;;7.37;5.97;;;;;;;11.30;100.00;101206.56;5015309;28;20211;-82
2023/10/01 03:23:11;;;;;;;6.97;6.20;;;;;;;11.24;100.00;101199.63;5020576;28;20557;-81
2023/10/01 03:25:42;;;;;;;7.93;5.20;;;;;;;11.18;100.00;101199.59;5012548;28;20321;-80
2023/10/01 03:28:25;;;;;;;7.27;6.13;;;;;;;11.15;100.00;101203.91;5009154;28;20215;-80
2023/10/01 03:30:52;;;;;;;6.60;5.77;;;;;;;11.12;100.00;101203.03;5013188;28;20370;-83
2023/10/01 03:33:20;;;;;;;6.60;5.30;;;;;;;11.12;100.00;101203.03;5014108;28;20254;-80
2023/10/01 03:35:49;;;;;;;5.40;4.90;;;;;;;11.13;100.00;101215.13;5017685;28;20187;-81
2023/10/01 03:38:15;;;;;;;7.20;5.40;;;;;;;11.11;100.00;101211.66;5006112;28;20183;-82
2023/10/01 03:41:00;;;;;;;6.70;5.57;;;;;;;11.10;100.00;101207.34;5021137;28;20258;-82
2023/10/01 03:43:34;;;;;;;5.97;5.20;;;;;;;11.09;100.00;101205.63;5013820;28;20196;-82
2023/10/01 03:48:58;;;;;;;5.70;5.00;;;;;;;11.07;100.00;101215.09;5010928;28;20233;-84
2023/10/01 03:51:53;;;;;;;7.33;4.80;;;;;;;11.06;100.00;101209.94;5005290;28;20263;-83
2023/10/01 03:57:17;;;;;;;5.50;4.80;;;;;;;11.09;100.00;101199.59;5016351;28;20200;-82
2023/10/01 03:59:51;;;;;;;5.97;4.80;;;;;;;11.12;100.00;101205.63;5012567;28;20269;-82
2023/10/01 04:05:05;;;;;;;6.27;5.27;;;;;;;11.23;100.00;101197.91;5012387;28;20216;-85
2023/10/01 04:07:43;;;;;;;7.67;5.73;;;;;;;11.27;100.00;101196.19;5018775;28;20195;-82
2023/10/01 04:10:13;;;;;;;6.50;5.37;;;;;;;11.27;100.00;101185.81;5036960;28;20207;-79
2023/10/01 04:12:49;;;;;;;6.27;4.93;;;;;;;11.24;100.00;101180.59;5034173;28;20180;-81
2023/10/01 04:15:27;;;;;;;5.17;4.67;;;;;;;11.22;100.00;101179.75;5022383;28;20186;-81
2023/10/01 04:20:48;;;;;;;6.50;5.20;;;;;;;11.18;100.00;101171.09;5015085;28;20214;-82
2023/10/01 04:23:29;;;;;;;5.40;4.90;;;;;;;11.15;100.00;101171.09;5019328;28;20663;-81
2023/10/01 04:25:56;;;;;;;6.17;5.40;;;;;;;11.10;100.00;101176.25;5013180;28;20219;-83
2023/10/01 04:28:23;;;;;;;5.97;5.33;;;;;;;11.04;100.00;101184.00;5012671;28;20202;-81
2023/10/01 04:30:51;;;;;;;5.80;4.80;;;;;;;11.00;100.00;101183.97;5021918;28;20242;-83
2023/10/01 04:33:17;;;;;;;5.10;4.60;;;;;;;10.94;100.00;101174.47;5034502;28;20192;-80
2023/10/01 04:35:56;;;;;;;5.67;4.83;;;;;;;10.91;100.00;101184.81;5014929;28;20189;-84
2023/10/01 04:38:22;;;;;;;4.80;4.30;;;;;;;10.87;100.00;101181.34;5008622;28;20733;-80
2023/10/01 04:40:49;;;;;;;5.13;4.60;;;;;;;10.83;100.00;101189.97;5021423;28;20419;-81
2023/10/01 04:43:19;;;;;;;4.60;4.20;;;;;;;10.79;100.00;101188.25;5014209;28;20183;-82
2023/10/01 04:45:45;;;;;;;5.20;4.03;;;;;;;10.77;100.00;101192.53;5016333;28;20211;-83
2023/10/01 04:48:24;;;;;;;5.13;4.57;;;;;;;10.73;100.00;101199.44;5009188;28;20200;-81
2023/10/01 04:50:53;;;;;;;5.50;4.90;;;;;;;10.64;100.00;101205.44;5012422;28;20220;-81
2023/10/01 04:53:23;;;;;;;5.97;5.03;;;;;;;10.59;100.00;101204.53;5041329;28;20195;-84
2023/10/01 04:56:05;;;;;;;5.87;5.27;;;;;;;10.57;100.00;101203.66;5014928;28;20699;-79
2023/10/01 04:58:37;;;;;;;5.03;4.53;;;;;;;10.58;100.00;101205.38;5006730;28;20186;-82
2023/10/01 05:01:11;;;;;;;7.03;5.50;;;;;;;10.62;100.00;101203.66;5043708;28;20211;-83
2023/10/01 05:03:40;;;;;;;7.17;5.63;;;;;;;10.65;100.00;101204.56;5041827;28;20188;-80
2023/10/01 05:06:23;;;;;;;5.40;4.83;;;;;;;10.69;100.00;101210.63;5015969;28;20211;-83
2023/10/01 05:08:53;;;;;;;6.23;5.40;;;;;;;10.68;100.00;101212.31;5006901;28;20208;-79
2023/10/01 05:11:21;;;;;;;6.53;5.63;;;;;;;10.69;100.00;101218.38;5012778;28;20294;-82
2023/10/01 05:13:51;;;;;;;6.73;5.10;;;;;;;10.64;100.00;101214.91;5013768;28;20652;-83
2023/10/01 05:16:18;;;;;;;5.57;4.97;;;;;;;10.61;100.00;101218.34;5011883;28;20537;-79
2023/10/01 05:18:48;;;;;;;6.03;5.00;;;;;;;10.60;100.00;101229.56;5007528;28;20282;-82
2023/10/01 05:21:14;;;;;;;5.97;5.27;;;;;;;10.62;100.00;101224.38;5014023;28;20219;-82
2023/10/01 05:23:40;;;;;;;7.00;5.07;;;;;;;10.62;100.00;101229.53;5015076;28;20227;-82
2023/10/01 05:26:08;;;;;;;5.87;5.20;;;;;;;10.64;100.00;101233.03;5015638;28;20211;-82
2023/10/01 05:28:36;;;;;;;5.40;4.77;;;;;;;10.67;100.00;101228.72;5006880;28;20196;-83
2023/10/01 05:31:06;;;;;;;7.03;5.47;;;;;;;10.70;100.00;101229.59;5013579;28;21125;-83
2023/10/01 05:33:35;;;;;;;5.50;4.73;;;;;;;10.73;100.00;101234.78;5011644;28;20738;-81
2023/10/01 05:36:04;;;;;;;6.37;5.57;;;;;;;10.78;100.00;101235.69;5013340;28;20212;-84
2023/10/01 05:38:34;;;;;;;6.47;5.03;;;;;;;10.80;100.00;101237.44;5018779;28;20183;-83
2023/10/01 05:41:03;;;;;;;8.13;4.70;;;;;;;10.82;100.00;101242.59;5023385;28;20216;-83
2023/10/01 05:43:43;;;;;;;5.77;4.73;;;;;;;10.83;100.00;101253.00;5019267;28;20195;-82
2023/10/01 05:46:12;;;;;;;5.33;4.53;;;;;;;10.84;100.00;101253.84;5023157;28;20236;-83
2023/10/01 05:48:43;;;;;;;5.97;5.07;;;;;;;10.81;100.00;101252.09;5015852;28;20188;-83
2023/10/01 05:51:11;;;;;;;6.07;4.90;;;;;;;10.86;100.00;101262.47;5017783;28;20244;-82
2023/10/01 05:53:40;;;;;;;8.47;5.30;;;;;;;10.92;100.00;101259.94;5024951;28;20187;-80
2023/10/01 05:56:10;;;;;;;6.03;4.87;;;;;;;10.98;100.00;101265.13;5012192;28;20200;-83
2023/10/01 05:58:37;;;;;;;5.77;4.87;;;;;;;11.04;100.00;101266.03;5014306;28;20635;-82
2023/10/01 06:01:14;;;;;;;5.97;4.53;;;;;;;11.10;100.00;101260.91;5023107;28;20263;-83
2023/10/01 06:03:44;;;;;;;5.40;4.80;;;;;;;11.13;100.00;101264.34;5022179;28;20266;-82
2023/10/01 06:06:14;;;;;;;4.93;4.40;;;;;;;11.15;100.00;101261.75;5019872;28;20298;-82
2023/10/01 06:08:49;;;;;;;4.87;4.37;;;;;;;11.18;100.00;101269.56;5032628;28;20211;-85
2023/10/01 06:11:18;;;;;;;4.93;4.33;;;;;;;11.19;100.00;101276.47;5013106;28;20219;-82
2023/10/01 06:13:51;;;;;;;6.47;4.53;;;;;;;11.26;100.00;101275.66;5021899;28;20184;-82
2023/10/01 06:16:22;;;;;;;5.97;5.13;;;;;;;11.32;100.00;101274.81;5034869;28;20194;-80
2023/10/01 06:18:58;;;;;;;5.80;5.20;;;;;;;11.41;100.00;101271.38;5022956;28;20255;-83
2023/10/01 06:21:25;;;;;;;7.23;5.40;;;;;;;11.43;100.00;101267.94;5013253;28;20210;-85
2023/10/01 06:23:58;;;;;;;7.23;5.93;;;;;;;11.49;100.00;101268.81;5015203;28;20194;-80
2023/10/01 06:26:33;;;;;;;6.53;5.63;;;;;;;11.56;100.00;101262.78;5008141;28;20205;-84
2023/10/01 06:29:01;;;;;;;5.93;5.00;;;;;;;11.63;100.00;101263.66;5008391;28;20209;-82
2023/10/01 06:31:27;;;;;;;6.37;5.00;;;;;;;11.68;100.00;101262.78;5011935;28;20212;-80
2023/10/01 06:33:56;;;;;;;7.67;5.87;;;;;;;11.74;100.00;101275.78;5008494;28;20197;-84
2023/10/01 06:36:23;;;;;;;6.80;5.77;;;;;;;11.79;100.00;101273.19;5012358;28;20217;-79
2023/10/01 06:38:54;;;;;;;7.13;6.13;;;;;;;11.87;100.00;101273.22;5011325;28;20188;-81
2023/10/01 06:41:25;;;;;;;9.13;6.07;;;;;;;11.98;100.00;101265.44;5015811;28;20218;-80
2023/10/01 06:43:54;;;;;;;7.37;5.47;;;;;;;12.02;100.00;101273.25;5012802;28;20192;-79
2023/10/01 06:46:27;;;;;;;7.77;6.40;;;;;;;12.08;100.00;101277.59;5011250;28;20517;-80
2023/10/01 06:48:55;;;;;;;6.60;5.50;;;;;;;12.11;100.00;101272.41;5012222;28;20203;-82
2023/10/01 06:51:21;;;;;;;6.17;5.57;;;;;;;12.19;100.00;101267.22;5022446;28;20219;-80
2023/10/01 06:53:54;;;;;;;6.60;5.87;;;;;;;12.29;100.00;101270.69;5014724;28;20204;-80
2023/10/01 06:56:21;;;;;;;6.30;5.50;;;;;;;12.35;100.00;101273.25;5014751;28;20668;-82
2023/10/01 06:59:12;;;;;;;7.20;5.73;;;;;;;12.45;100.00;101276.72;5005009;28;20568;-80
2023/10/01 07:01:42;;;;;;;6.90;5.90;;;;;;;12.59;100.00;101276.72;5014396;28;20241;-80
2023/10/01 07:04:11;;;;;;;7.73;5.97;;;;;;;12.71;100.00;101281.88;5020007;28;20198;-80
2023/10/01 07:06:38;;;;;;;6.33;5.57;;;;;;;12.82;100.00;101287.06;5015659;28;20208;-81
2023/10/01 07:09:23;;;;;;;6.57;5.40;;;;;;;12.96;100.00;101294.81;5013427;28;20188;-82
2023/10/01 07:11:49;;;;;;;9.10;6.53;;;;;;;13.10;100.00;101292.19;5017205;28;20191;-81
2023/10/01 07:14:14;;;;;;;6.60;5.93;;;;;;;13.23;100.00;101288.66;5019426;28;20189;-83
2023/10/01 07:16:40;;;;;;;7.60;6.70;;;;;;;13.35;100.00;101284.28;5015495;28;20198;-81
2023/10/01 07:19:11;;;;;;;10.17;6.97;;;;;;;13.45;100.00;101291.22;5022107;28;20616;-81
2023/10/01 07:21:38;;;;;;;6.77;5.73;;;;;;;13.57;100.00;101282.47;5012979;28;21139;-81
2023/10/01 07:24:04;;;;;;;6.90;6.20;;;;;;;13.68;100.00;101287.59;5009613;28;20210;-82
2023/10/01 07:26:33;;;;;;;7.37;6.07;;;;;;;13.79;100.00;101293.59;5022922;28;20296;-83
2023/10/01 07:28:59;;;;;;;7.37;6.57;;;;;;;13.94;100.00;101296.97;5017898;28;20604;-84
2023/10/01 07:31:25;;;;;;;9.23;7.70;;;;;;;14.07;100.00;101292.56;5015602;28;20223;-80
2023/10/01 07:33:54;;;;;;;8.07;7.00;;;;;;;14.25;100.00;101291.56;5037815;28;20221;-79
2023/10/01 07:36:23;;;;;;;7.23;6.50;;;;;;;14.43;100.00;101295.75;5012741;28;20968;-84
2023/10/01 07:38:52;;;;;;;7.97;7.17;;;;;;;14.45;100.00;101304.41;5044056;28;20298;-82
2023/10/01 07:41:20;;;;;;;9.20;7.00;;;;;;;14.52;100.00;101297.41;5014296;28;20250;-80
2023/10/01 07:43:46;;;;;;;7.67;6.37;;;;;;;14.62;100.00;101299.91;5009825;28;20270;-84
2023/10/01 07:46:15;;;;;;;8.00;6.40;;;;;;;14.73;100.00;101304.19;5014453;28;20204;-78
2023/10/01 07:48:47;;;;;;;7.47;6.77;;;;;;;14.80;100.00;101303.25;5043460;28;20196;-81
2023/10/01 07:51:35;;;;;;;7.70;6.43;;;;;;;14.90;100.00;101299.66;5028428;28;20207;-83
2023/10/01 07:54:09;;;;;;;12.13;7.90;;;;;;;14.88;100.00;101297.94;5035163;28;20191;-81
2023/10/01 07:56:51;;;;;;;7.10;6.40;;;;;;;15.04;100.00;101301.25;5042042;28;20234;-82
2023/10/01 07:59:34;;;;;;;7.93;6.57;;;;;;;15.18;100.00;101298.47;5021298;28;20188;-81
2023/10/01 08:07:15;;;;;;;8.80;7.07;;;;;;;15.52;100.00;101308.50;5021043;28;20680;-82
2023/10/01 08:09:46;;;;;;;7.40;6.47;;;;;;;15.63;100.00;101306.59;5019898;28;20199;-80
2023/10/01 08:12:12;;;;;;;8.00;7.20;;;;;;;15.66;100.00;101301.34;5016360;28;20192;-82
2023/10/01 08:14:40;;;;;;;9.17;7.37;;;;;;;15.67;100.00;101302.19;5019419;28;20184;-80
2023/10/01 08:17:07;;;;;;;7.90;6.70;;;;;;;15.73;100.00;101304.72;5009545;28;20183;-80
2023/10/01 08:19:44;;;;;;;7.90;7.10;;;;;;;15.89;100.00;101301.94;5022476;28;20190;-78
2023/10/01 08:22:13;;;;;;;8.77;6.40;;;;;;;16.04;100.00;101299.09;5043194;28;20183;-83
2023/10/01 08:24:39;;;;;;;8.30;6.70;;;;;;;16.17;100.00;101294.53;5013215;28;20214;-82
2023/10/01 08:27:12;;;;;;;8.73;6.90;;;;;;;16.32;100.00;101298.63;5020273;28;20740;-83
2023/10/01 08:32:23;;;;;;;7.43;6.30;;;;;;;16.46;100.00;101294.03;5009191;28;20786;-81
2023/10/01 08:35:06;;;;;;;6.97;6.13;;;;;;;16.63;100.00;101292.88;5006502;28;20204;-81
2023/10/01 08:37:31;;;;;;;10.20;6.43;;;;;;;16.69;100.00;101302.34;5008288;28;20180;-81
2023/10/01 08:40:00;;;;;;;7.60;6.27;;;;;;;16.77;100.00;101293.47;5010618;28;20214;-81
2023/10/01 08:42:29;;;;;;;8.57;6.07;;;;;;;16.96;100.00;101302.75;5014074;28;20299;-82
2023/10/01 08:45:03;;;;;;;6.70;5.97;;;;;;;17.06;100.00;101296.47;5008689;28;20440;-81
2023/10/01 08:52:57;;;;;;;7.90;5.50;;;;;;;17.37;100.00;101301.91;5009909;28;22909;-80
2023/10/01 08:55:39;;;;;;;7.00;5.77;;;;;;;17.51;100.00;101304.25;5008896;28;20659;-83
2023/10/01 08:58:15;;;;;;;7.07;6.30;;;;;;;17.62;100.00;101296.16;5009834;28;20194;-79
2023/10/01 09:00:52;;;;;;;7.93;6.03;;;;;;;17.55;100.00;101299.81;5008789;28;20622;-81
2023/10/01 09:03:28;;;;;;;7.67;6.40;;;;;;;17.59;100.00;101298.84;5009447;28;20184;-81
2023/10/01 09:06:08;;;;;;;7.57;6.50;;;;;;;17.70;100.00;101295.97;5013137;28;20311;-82
2023/10/01 09:08:45;;;;;;;6.83;5.80;;;;;;;17.85;100.00;101300.00;5010307;28;20189;-82
2023/10/01 09:11:16;;;;;;;8.87;6.60;;;;;;;18.03;100.00;101296.13;5019571;28;20270;-81
2023/10/01 09:14:14;;;;;;;7.67;5.93;;;;;;;18.21;100.00;101297.44;5026929;28;20229;-79
2023/10/01 09:16:42;;;;;;;9.03;6.77;;;;;;;18.33;100.00;101293.63;5019613;28;20182;-81
2023/10/01 09:21:55;;;;;;;7.90;6.00;;;;;;;18.39;100.00;101288.25;5017848;28;20217;-81
2023/10/01 09:24:42;;;;;;;8.33;6.70;;;;;;;18.41;100.00;101277.72;5013910;28;20219;-80
2023/10/01 09:27:09;;;;;;;8.67;6.63;;;;;;;18.56;100.00;101279.94;5009255;28;20223;-82
2023/10/01 09:29:46;;;;;;;8.07;6.17;;;;;;;18.60;100.00;101272.88;5016878;28;20179;-82
2023/10/01 09:32:13;;;;;;;7.90;6.50;;;;;;;18.76;100.00;101272.44;5007699;28;20236;-80
2023/10/01 09:34:46;;;;;;;8.40;6.57;;;;;;;18.83;99.84;101266.13;5038406;28;20230;-77
2023/10/01 09:37:35;;;;;;;8.23;6.30;;;;;;;18.89;99.63;101266.81;5015390;28;20202;-81
2023/10/01 09:42:57;;;;;;;10.07;7.53;;;;;;;18.81;98.55;101268.81;5025492;28;20286;-81
2023/10/01 09:45:26;;;;;;;8.13;6.33;;;;;;;18.87;99.54;101266.00;5013945;28;20213;-81
2023/10/01 09:47:59;;;;;;;8.07;6.97;;;;;;;19.02;99.36;101261.25;5019036;28;20215;-83
2023/10/01 09:50:27;;;;;;;11.13;7.17;;;;;;;18.91;99.13;101264.13;5012190;28;20245;-81
2023/10/01 09:52:59;;;;;;;8.30;6.77;;;;;;;18.93;99.24;101256.25;5009653;28;21057;-81
2023/10/01 09:55:27;;;;;;;8.93;6.73;;;;;;;19.06;99.52;101256.78;5018791;28;20246;-79
2023/10/01 09:57:54;;;;;;;8.03;6.77;;;;;;;19.11;99.04;101254.88;5014379;28;20190;-82
2023/10/01 10:00:21;;;;;;;7.73;5.90;;;;;;;19.29;99.18;101248.22;5011780;28;20234;-80
2023/10/01 10:02:52;;;;;;;6.13;5.23;;;;;;;19.38;99.40;101237.47;5016685;28;20189;-80
2023/10/01 10:05:26;;;;;;;8.47;5.70;;;;;;;19.55;99.37;101241.31;5006308;28;20204;-80
2023/10/01 10:08:13;;;;;;;8.50;6.33;;;;;;;19.50;98.21;101237.06;5013851;28;20200;-78
2023/10/01 10:10:52;;;;;;;8.07;6.47;;;;;;;19.48;96.68;101228.38;5014873;28;20214;-80
2023/10/01 10:13:38;;;;;;;10.03;6.37;;;;;;;19.60;96.59;101234.16;5012765;28;20194;-77
2023/10/01 10:19:16;;;;;;;8.57;6.27;;;;;;;19.71;96.45;101244.31;5014772;28;20198;-81
2023/10/01 10:24:29;;;;;;;8.33;5.90;;;;;;;20.00;96.64;101222.41;5015208;28;20216;-80
2023/10/01 10:27:00;;;;;;;8.63;5.97;;;;;;;20.09;96.23;101222.06;5021450;28;20249;-81
2023/10/01 10:29:57;;;;;;;9.40;6.70;;;;;;;19.84;93.91;101214.13;5017439;28;20267;-79
2023/10/01 10:32:47;;;;;;;7.53;5.97;;;;;;;19.99;93.32;101210.16;5010661;28;20690;-81
2023/10/01 10:35:14;;;;;;;8.50;6.33;;;;;;;20.11;93.79;101208.91;5009107;28;20187;-81
2023/10/01 10:37:53;;;;;;;10.13;6.70;;;;;;;20.21;93.98;101204.16;5023944;28;20214;-81
2023/10/01 10:42:46;;;;;;;7.37;6.10;;;;;;;20.35;93.37;101201.91;5021246;28;20727;-82
2023/10/01 10:45:21;;;;;;;7.53;6.00;;;;;;;20.52;92.78;101205.69;5016211;28;20211;-81
2023/10/01 10:47:59;;;;;;;8.70;6.23;;;;;;;20.59;92.32;101208.97;5017427;28;20183;-79
2023/10/01 10:50:50;;;;;;;6.63;5.60;;;;;;;20.64;92.95;101209.66;5011680;28;20207;-81
2023/10/01 10:53:21;;;;;;;9.07;6.83;;;;;;;20.59;92.22;101204.59;5014253;28;20207;-83
2023/10/01 10:56:10;;;;;;;8.03;6.57;;;;;;;20.08;92.06;101206.38;5025845;28;20607;-80
2023/10/01 10:58:43;;;;;;;10.67;6.17;;;;;;;19.88;91.48;101204.41;5025210;28;20209;-80
2023/10/01 11:01:21;;;;;;;9.77;6.57;;;;;;;19.89;91.87;101206.13;5017504;28;20210;-81
2023/10/01 11:03:50;;;;;;;8.37;6.47;;;;;;;20.13;91.47;101203.56;5022839;28;20182;-78
2023/10/01 11:06:23;;;;;;;10.20;6.77;;;;;;;20.12;91.60;101201.84;5023354;28;20801;-80
2023/10/01 11:08:50;;;;;;;8.93;6.80;;;;;;;19.85;93.17;101202.69;5022404;28;20183;-79
2023/10/01 11:11:30;;;;;;;8.17;6.40;;;;;;;20.01;91.69;101203.09;5016786;28;20203;-81
2023/10/01 11:14:03;;;;;;;9.07;7.03;;;;;;;20.11;91.35;101201.00;5043050;28;20183;-79
2023/10/01 11:16:36;;;;;;;9.20;6.53;;;;;;;20.21;91.06;101202.41;5013201;28;20210;-81
2023/10/01 11:19:15;;;;;;;8.50;6.10;;;;;;;20.18;90.72;101201.66;5011947;28;20222;-81
2023/10/01 11:22:00;;;;;;;9.13;6.77;;;;;;;20.10;90.66;101199.28;5018019;28;20289;-82
2023/10/01 11:24:33;;;;;;;8.20;6.57;;;;;;;20.30;89.87;101187.22;5020167;28;20218;-78
2023/10/01 11:27:14;;;;;;;10.27;7.00;;;;;;;20.09;90.73;101189.69;5014166;28;20663;-82
2023/10/01 11:30:12;;;;;;;10.63;7.30;;;;;;;20.30;91.45;101182.81;5015363;28;20243;-79
2023/10/01 11:35:59;;;;;;;7.70;5.83;;;;;;;20.83;90.31;101167.78;5011683;28;20209;-81
2023/10/01 11:38:26;;;;;;;9.33;6.77;;;;;;;20.65;88.80;101170.16;5013840;28;20233;-79
2023/10/01 11:41:06;;;;;;;10.43;7.03;;;;;;;20.41;89.33;101164.03;5029251;28;20214;-79
2023/10/01 11:43:41;;;;;;;8.23;6.00;;;;;;;20.38;88.95;101172.03;5011399;28;20184;-78
2023/10/01 11:46:19;;;;;;;8.67;6.30;;;;;;;20.69;87.30;101160.41;5015216;28;20222;-80
2023/10/01 11:48:56;;;;;;;8.73;6.17;;;;;;;20.88;86.92;101157.94;5012419;28;20200;-81
2023/10/01 11:51:48;;;;;;;8.07;6.97;;;;;;;20.89;87.52;101151.78;5016299;28;20203;-80
2023/10/01 11:54:52;;;;;;;8.97;6.37;;;;;;;21.05;86.75;101140.66;5013521;28;20214;-81
2023/10/01 11:57:22;;;;;;;8.03;6.10;;;;;;;20.92;86.97;101138.50;5019149;28;20541;-82
2023/10/01 11:59:56;;;;;;;9.27;6.50;;;;;;;20.76;87.52;101132.97;5026791;28;20330;-80
2023/10/01 12:02:26;;;;;;;8.40;6.37;;;;;;;20.76;87.23;101126.84;5014000;28;20879;-81
2023/10/01 12:04:56;;;;;;;7.77;6.07;;;;;;;20.92;87.41;101135.88;5016384;28;20196;-80
2023/10/01 12:07:26;;;;;;;10.27;6.30;;;;;;;20.69;86.91;101134.94;5020962;28;20318;-81
2023/10/01 12:09:53;;;;;;;7.00;5.53;;;;;;;21.04;86.33;101124.00;5021506;28;20276;-78
2023/10/01 12:12:21;;;;;;;8.27;6.20;;;;;;;20.99;86.98;101116.28;5023361;28;20183;-78
2023/10/01 12:15:33;;;;;;;9.60;6.60;;;;;;;20.80;87.07;101120.53;5024817;28;20187;-80
2023/10/01 12:17:44;;;;;;;8.60;6.50;;;;;;;20.75;87.99;101115.47;5018433;28;20187;-80
2023/10/01 12:20:22;;;;;;;8.70;6.33;;;;;;;20.89;87.66;101114.06;5011590;28;20226;-82
2023/10/01 12:25:46;;;;;;;6.63;5.70;;;;;;;21.20;87.67;101107.59;5029756;28;20207;-83
2023/10/01 12:28:28;;;;;;;9.10;6.07;;;;;;;21.22;88.12;101106.63;5036476;28;20187;-82
2023/10/01 12:30:57;;;;;;;7.80;5.70;;;;;;;21.32;87.58;101096.59;5022249;28;20302;-84
2023/10/01 12:33:38;;;;;;;8.17;6.07;;;;;;;21.42;87.64;101089.13;5022845;28;20191;-84
2023/10/01 12:39:03;;;;;;;8.17;6.53;;;;;;;21.47;87.39;101084.53;5031002;28;20302;-81
2023/10/01 12:41:29;;;;;;;9.70;6.00;;;;;;;21.51;88.03;101086.13;5023083;28;20255;-83
2023/10/01 12:44:14;;;;;;;6.80;5.40;;;;;;;21.56;87.77;101084.13;5028508;28;20202;-83